sensor_id;sensor_type;location;lat;lon;timestamp;P1;durP1;ratioP1;P2;durP2;ratioP2
17175;SDS011;8703;48.996;9.594;2022-08-20T00:01:08;19.75;;;16.13;;
17175;SDS011;8703;48.996;9.594;2022-08-20T00:03:37;17.80;;;15.13;;
17175;SDS011;8703;48.996;9.594;2022-08-20T00:06:06;16.33;;;14.30;;
17175;SDS011;8703;48.996;9.594;2022-08-20T00:08:35;17.88;;;15.57;;
17175;SDS011;8703;48.996;9.594;2022-08-20T00:11:03;24.75;;;15.80;;
17175;SDS011;8703;48.996;9.594;2022-08-20T00:13:33;21.23;;;16.58;;
17175;SDS011;8703;48.996;9.594;2022-08-20T00:16:02;31.33;;;18.73;;
17175;SDS011;8703;48.996;9.594;2022-08-20T00:18:31;24.73;;;18.77;;
17175;SDS011;8703;48.996;9.594;2022-08-20T00:21:01;25.50;;;18.65;;
17175;SDS011;8703;48.996;9.594;2022-08-20T00:23:29;20.83;;;17.75;;
17175;SDS011;8703;48.996;9.594;2022-08-20T00:25:57;26.50;;;18.40;;
17175;SDS011;8703;48.996;9.594;2022-08-20T00:28:24;23.10;;;18.65;;
17175;SDS011;8703;48.996;9.594;2022-08-20T00:30:51;27.88;;;18.20;;
17175;SDS011;8703;48.996;9.594;2022-08-20T00:33:20;21.85;;;18.33;;
17175;SDS011;8703;48.996;9.594;2022-08-20T00:35:51;22.35;;;17.77;;
17175;SDS011;8703;48.996;9.594;2022-08-20T00:38:20;23.08;;;17.25;;
17175;SDS011;8703;48.996;9.594;2022-08-20T00:40:49;24.70;;;17.38;;
17175;SDS011;8703;48.996;9.594;2022-08-20T00:46:09;19.83;;;17.00;;
17175;SDS011;8703;48.996;9.594;2022-08-20T00:48:38;24.33;;;16.65;;
17175;SDS011;8703;48.996;9.594;2022-08-20T00:51:09;24.83;;;17.10;;
17175;SDS011;8703;48.996;9.594;2022-08-20T00:53:39;23.88;;;17.10;;
17175;SDS011;8703;48.996;9.594;2022-08-20T00:56:07;25.52;;;16.92;;
17175;SDS011;8703;48.996;9.594;2022-08-20T00:58:36;23.35;;;16.83;;
17175;SDS011;8703;48.996;9.594;2022-08-20T01:01:05;28.08;;;17.00;;
17175;SDS011;8703;48.996;9.594;2022-08-20T01:03:33;30.60;;;16.77;;
17175;SDS011;8703;48.996;9.594;2022-08-20T01:06:00;19.70;;;16.33;;
17175;SDS011;8703;48.996;9.594;2022-08-20T01:08:29;18.55;;;15.48;;
17175;SDS011;8703;48.996;9.594;2022-08-20T01:10:57;17.42;;;14.98;;
17175;SDS011;8703;48.996;9.594;2022-08-20T01:13:36;19.55;;;14.57;;
17175;SDS011;8703;48.996;9.594;2022-08-20T01:16:07;18.02;;;15.30;;
17175;SDS011;8703;48.996;9.594;2022-08-20T01:18:40;16.75;;;13.90;;
17175;SDS011;8703;48.996;9.594;2022-08-20T01:21:07;16.10;;;13.70;;
17175;SDS011;8703;48.996;9.594;2022-08-20T01:23:38;15.95;;;13.00;;
17175;SDS011;8703;48.996;9.594;2022-08-20T01:26:11;15.60;;;13.88;;
17175;SDS011;8703;48.996;9.594;2022-08-20T01:28:41;16.48;;;14.02;;
17175;SDS011;8703;48.996;9.594;2022-08-20T01:31:10;15.45;;;13.88;;
17175;SDS011;8703;48.996;9.594;2022-08-20T01:33:40;14.25;;;12.75;;
17175;SDS011;8703;48.996;9.594;2022-08-20T01:36:08;14.82;;;12.95;;
17175;SDS011;8703;48.996;9.594;2022-08-20T01:38:36;15.20;;;13.60;;
17175;SDS011;8703;48.996;9.594;2022-08-20T01:41:17;17.98;;;14.07;;
17175;SDS011;8703;48.996;9.594;2022-08-20T01:43:49;13.93;;;12.45;;
17175;SDS011;8703;48.996;9.594;2022-08-20T01:46:20;14.50;;;12.73;;
17175;SDS011;8703;48.996;9.594;2022-08-20T01:48:49;15.30;;;12.70;;
17175;SDS011;8703;48.996;9.594;2022-08-20T01:51:17;16.13;;;13.35;;
17175;SDS011;8703;48.996;9.594;2022-08-20T01:53:49;13.60;;;12.05;;
17175;SDS011;8703;48.996;9.594;2022-08-20T01:56:19;13.73;;;12.25;;
17175;SDS011;8703;48.996;9.594;2022-08-20T01:58:49;14.90;;;12.35;;
17175;SDS011;8703;48.996;9.594;2022-08-20T02:01:22;14.77;;;13.02;;
17175;SDS011;8703;48.996;9.594;2022-08-20T02:03:51;15.27;;;12.75;;
17175;SDS011;8703;48.996;9.594;2022-08-20T02:06:19;13.60;;;12.07;;
17175;SDS011;8703;48.996;9.594;2022-08-20T02:08:49;13.20;;;11.82;;
17175;SDS011;8703;48.996;9.594;2022-08-20T02:11:19;13.18;;;11.85;;
17175;SDS011;8703;48.996;9.594;2022-08-20T02:13:47;13.02;;;11.15;;
17175;SDS011;8703;48.996;9.594;2022-08-20T02:16:16;12.77;;;11.23;;
17175;SDS011;8703;48.996;9.594;2022-08-20T02:18:45;12.18;;;10.88;;
17175;SDS011;8703;48.996;9.594;2022-08-20T02:21:14;11.80;;;10.65;;
17175;SDS011;8703;48.996;9.594;2022-08-20T02:23:42;13.27;;;10.77;;
17175;SDS011;8703;48.996;9.594;2022-08-20T02:26:09;12.65;;;11.30;;
17175;SDS011;8703;48.996;9.594;2022-08-20T02:28:38;14.10;;;11.98;;
17175;SDS011;8703;48.996;9.594;2022-08-20T02:31:05;11.93;;;10.68;;
17175;SDS011;8703;48.996;9.594;2022-08-20T02:33:33;12.93;;;11.02;;
17175;SDS011;8703;48.996;9.594;2022-08-20T02:36:01;12.70;;;10.93;;
17175;SDS011;8703;48.996;9.594;2022-08-20T02:38:28;12.02;;;10.82;;
17175;SDS011;8703;48.996;9.594;2022-08-20T02:40:59;13.02;;;10.75;;
17175;SDS011;8703;48.996;9.594;2022-08-20T02:43:26;11.20;;;9.98;;
17175;SDS011;8703;48.996;9.594;2022-08-20T02:45:57;12.85;;;10.20;;
17175;SDS011;8703;48.996;9.594;2022-08-20T02:48:25;13.25;;;10.65;;
17175;SDS011;8703;48.996;9.594;2022-08-20T02:50:55;12.48;;;10.75;;
17175;SDS011;8703;48.996;9.594;2022-08-20T02:53:26;12.13;;;10.93;;
17175;SDS011;8703;48.996;9.594;2022-08-20T02:55:54;12.60;;;11.00;;
17175;SDS011;8703;48.996;9.594;2022-08-20T02:58:22;14.43;;;11.20;;
17175;SDS011;8703;48.996;9.594;2022-08-20T03:00:50;11.80;;;10.60;;
17175;SDS011;8703;48.996;9.594;2022-08-20T03:03:19;11.98;;;10.40;;
17175;SDS011;8703;48.996;9.594;2022-08-20T03:05:49;12.32;;;11.13;;
17175;SDS011;8703;48.996;9.594;2022-08-20T03:08:18;11.25;;;10.05;;
17175;SDS011;8703;48.996;9.594;2022-08-20T03:10:46;11.32;;;10.15;;
17175;SDS011;8703;48.996;9.594;2022-08-20T03:13:14;11.40;;;10.27;;
17175;SDS011;8703;48.996;9.594;2022-08-20T03:15:43;11.43;;;10.23;;
17175;SDS011;8703;48.996;9.594;2022-08-20T03:18:13;10.90;;;9.77;;
17175;SDS011;8703;48.996;9.594;2022-08-20T03:20:42;12.80;;;10.13;;
17175;SDS011;8703;48.996;9.594;2022-08-20T03:23:10;11.45;;;9.55;;
17175;SDS011;8703;48.996;9.594;2022-08-20T03:25:38;10.60;;;9.52;;
17175;SDS011;8703;48.996;9.594;2022-08-20T03:28:06;11.55;;;10.35;;
17175;SDS011;8703;48.996;9.594;2022-08-20T03:30:34;10.95;;;9.85;;
17175;SDS011;8703;48.996;9.594;2022-08-20T03:33:01;12.50;;;11.30;;
17175;SDS011;8703;48.996;9.594;2022-08-20T03:35:29;12.60;;;11.30;;
17175;SDS011;8703;48.996;9.594;2022-08-20T03:37:59;11.68;;;10.48;;
17175;SDS011;8703;48.996;9.594;2022-08-20T03:40:27;11.57;;;10.38;;
17175;SDS011;8703;48.996;9.594;2022-08-20T03:42:55;11.35;;;10.15;;
17175;SDS011;8703;48.996;9.594;2022-08-20T03:45:24;11.32;;;10.18;;
17175;SDS011;8703;48.996;9.594;2022-08-20T03:47:52;10.73;;;9.53;;
17175;SDS011;8703;48.996;9.594;2022-08-20T03:50:21;12.80;;;9.13;;
17175;SDS011;8703;48.996;9.594;2022-08-20T03:52:50;12.07;;;10.85;;
17175;SDS011;8703;48.996;9.594;2022-08-20T03:55:20;11.13;;;9.07;;
17175;SDS011;8703;48.996;9.594;2022-08-20T03:57:49;10.15;;;8.52;;
17175;SDS011;8703;48.996;9.594;2022-08-20T04:00:18;9.10;;;8.20;;
17175;SDS011;8703;48.996;9.594;2022-08-20T04:02:47;9.13;;;7.93;;
17175;SDS011;8703;48.996;9.594;2022-08-20T04:05:15;10.02;;;8.20;;
17175;SDS011;8703;48.996;9.594;2022-08-20T04:07:42;9.02;;;8.05;;
17175;SDS011;8703;48.996;9.594;2022-08-20T04:10:11;10.10;;;8.27;;
17175;SDS011;8703;48.996;9.594;2022-08-20T04:12:39;10.40;;;8.07;;
17175;SDS011;8703;48.996;9.594;2022-08-20T04:15:08;9.35;;;7.50;;
17175;SDS011;8703;48.996;9.594;2022-08-20T04:17:36;7.90;;;7.00;;
17175;SDS011;8703;48.996;9.594;2022-08-20T04:20:06;10.35;;;7.75;;
17175;SDS011;8703;48.996;9.594;2022-08-20T04:22:36;9.18;;;7.03;;
17175;SDS011;8703;48.996;9.594;2022-08-20T04:25:04;11.18;;;7.70;;
17175;SDS011;8703;48.996;9.594;2022-08-20T04:27:33;8.73;;;7.57;;
17175;SDS011;8703;48.996;9.594;2022-08-20T04:30:04;8.40;;;6.90;;
17175;SDS011;8703;48.996;9.594;2022-08-20T04:32:33;10.02;;;7.63;;
17175;SDS011;8703;48.996;9.594;2022-08-20T04:35:01;9.45;;;6.97;;
17175;SDS011;8703;48.996;9.594;2022-08-20T04:37:31;12.23;;;6.70;;
17175;SDS011;8703;48.996;9.594;2022-08-20T04:40:01;8.93;;;6.90;;
17175;SDS011;8703;48.996;9.594;2022-08-20T04:42:47;7.47;;;6.50;;
17175;SDS011;8703;48.996;9.594;2022-08-20T04:45:16;7.82;;;6.57;;
17175;SDS011;8703;48.996;9.594;2022-08-20T04:47:43;8.63;;;6.20;;
17175;SDS011;8703;48.996;9.594;2022-08-20T04:50:12;10.43;;;6.90;;
17175;SDS011;8703;48.996;9.594;2022-08-20T04:52:40;6.85;;;6.15;;
17175;SDS011;8703;48.996;9.594;2022-08-20T04:55:07;8.57;;;6.30;;
17175;SDS011;8703;48.996;9.594;2022-08-20T04:57:35;7.45;;;6.60;;
17175;SDS011;8703;48.996;9.594;2022-08-20T05:00:03;7.38;;;6.57;;
17175;SDS011;8703;48.996;9.594;2022-08-20T05:02:33;7.55;;;5.82;;
17175;SDS011;8703;48.996;9.594;2022-08-20T05:05:01;7.30;;;5.72;;
17175;SDS011;8703;48.996;9.594;2022-08-20T05:07:29;6.50;;;5.57;;
17175;SDS011;8703;48.996;9.594;2022-08-20T05:09:57;7.25;;;6.55;;
17175;SDS011;8703;48.996;9.594;2022-08-20T05:12:24;7.78;;;6.13;;
17175;SDS011;8703;48.996;9.594;2022-08-20T05:14:51;6.93;;;5.93;;
17175;SDS011;8703;48.996;9.594;2022-08-20T05:17:19;7.40;;;5.70;;
17175;SDS011;8703;48.996;9.594;2022-08-20T05:19:50;8.10;;;6.18;;
17175;SDS011;8703;48.996;9.594;2022-08-20T05:22:18;6.45;;;5.85;;
17175;SDS011;8703;48.996;9.594;2022-08-20T05:24:46;7.32;;;6.63;;
17175;SDS011;8703;48.996;9.594;2022-08-20T05:27:16;11.63;;;6.78;;
17175;SDS011;8703;48.996;9.594;2022-08-20T05:29:44;7.90;;;6.57;;
17175;SDS011;8703;48.996;9.594;2022-08-20T05:32:12;7.57;;;6.57;;
17175;SDS011;8703;48.996;9.594;2022-08-20T05:34:39;6.65;;;6.03;;
17175;SDS011;8703;48.996;9.594;2022-08-20T05:37:08;7.53;;;6.43;;
17175;SDS011;8703;48.996;9.594;2022-08-20T05:39:36;10.55;;;6.70;;
17175;SDS011;8703;48.996;9.594;2022-08-20T05:42:03;7.47;;;6.68;;
17175;SDS011;8703;48.996;9.594;2022-08-20T05:44:30;6.60;;;6.00;;
17175;SDS011;8703;48.996;9.594;2022-08-20T05:47:00;9.30;;;5.88;;
17175;SDS011;8703;48.996;9.594;2022-08-20T05:49:28;6.80;;;6.07;;
17175;SDS011;8703;48.996;9.594;2022-08-20T05:51:56;9.10;;;6.47;;
17175;SDS011;8703;48.996;9.594;2022-08-20T05:54:24;7.97;;;6.22;;
17175;SDS011;8703;48.996;9.594;2022-08-20T05:56:52;6.20;;;5.35;;
17175;SDS011;8703;48.996;9.594;2022-08-20T05:59:19;7.13;;;6.28;;
17175;SDS011;8703;48.996;9.594;2022-08-20T06:01:48;8.52;;;6.22;;
17175;SDS011;8703;48.996;9.594;2022-08-20T06:04:15;6.78;;;5.90;;
17175;SDS011;8703;48.996;9.594;2022-08-20T06:06:53;6.95;;;5.70;;
17175;SDS011;8703;48.996;9.594;2022-08-20T06:09:22;6.30;;;5.70;;
17175;SDS011;8703;48.996;9.594;2022-08-20T06:11:51;6.95;;;6.25;;
17175;SDS011;8703;48.996;9.594;2022-08-20T06:14:19;6.32;;;5.55;;
17175;SDS011;8703;48.996;9.594;2022-08-20T06:16:46;6.22;;;5.63;;
17175;SDS011;8703;48.996;9.594;2022-08-20T06:19:14;6.50;;;5.57;;
17175;SDS011;8703;48.996;9.594;2022-08-20T06:21:41;7.25;;;5.78;;
17175;SDS011;8703;48.996;9.594;2022-08-20T06:24:08;5.90;;;5.30;;
17175;SDS011;8703;48.996;9.594;2022-08-20T06:26:37;6.03;;;5.32;;
17175;SDS011;8703;48.996;9.594;2022-08-20T06:29:04;7.55;;;5.80;;
17175;SDS011;8703;48.996;9.594;2022-08-20T06:31:32;5.90;;;5.03;;
17175;SDS011;8703;48.996;9.594;2022-08-20T06:34:03;5.28;;;4.78;;
17175;SDS011;8703;48.996;9.594;2022-08-20T06:36:32;5.50;;;5.00;;
17175;SDS011;8703;48.996;9.594;2022-08-20T06:38:59;5.47;;;4.97;;
17175;SDS011;8703;48.996;9.594;2022-08-20T06:41:27;6.32;;;5.28;;
17175;SDS011;8703;48.996;9.594;2022-08-20T06:43:55;6.90;;;5.60;;
17175;SDS011;8703;48.996;9.594;2022-08-20T06:46:24;6.07;;;5.47;;
17175;SDS011;8703;48.996;9.594;2022-08-20T06:48:51;12.93;;;11.55;;
17175;SDS011;8703;48.996;9.594;2022-08-20T06:51:19;7.28;;;6.43;;
17175;SDS011;8703;48.996;9.594;2022-08-20T06:53:47;6.32;;;5.70;;
17175;SDS011;8703;48.996;9.594;2022-08-20T06:56:14;6.50;;;5.90;;
17175;SDS011;8703;48.996;9.594;2022-08-20T06:58:41;8.38;;;6.30;;
17175;SDS011;8703;48.996;9.594;2022-08-20T07:01:10;7.32;;;6.63;;
17175;SDS011;8703;48.996;9.594;2022-08-20T07:03:38;8.60;;;6.55;;
17175;SDS011;8703;48.996;9.594;2022-08-20T07:06:06;8.35;;;6.40;;
17175;SDS011;8703;48.996;9.594;2022-08-20T07:08:35;7.00;;;6.30;;
17175;SDS011;8703;48.996;9.594;2022-08-20T07:11:02;7.78;;;6.50;;
17175;SDS011;8703;48.996;9.594;2022-08-20T07:13:29;9.10;;;8.27;;
17175;SDS011;8703;48.996;9.594;2022-08-20T07:15:57;8.07;;;7.30;;
17175;SDS011;8703;48.996;9.594;2022-08-20T07:18:25;7.00;;;6.38;;
17175;SDS011;8703;48.996;9.594;2022-08-20T07:20:53;7.40;;;6.45;;
17175;SDS011;8703;48.996;9.594;2022-08-20T07:23:21;7.63;;;6.93;;
17175;SDS011;8703;48.996;9.594;2022-08-20T07:25:48;7.50;;;6.50;;
17175;SDS011;8703;48.996;9.594;2022-08-20T07:28:16;7.65;;;6.95;;
17175;SDS011;8703;48.996;9.594;2022-08-20T07:30:46;7.95;;;7.25;;
17175;SDS011;8703;48.996;9.594;2022-08-20T07:33:33;7.55;;;6.85;;
17175;SDS011;8703;48.996;9.594;2022-08-20T07:36:01;9.45;;;8.15;;
17175;SDS011;8703;48.996;9.594;2022-08-20T07:38:30;7.95;;;7.15;;
17175;SDS011;8703;48.996;9.594;2022-08-20T07:40:59;7.95;;;7.15;;
17175;SDS011;8703;48.996;9.594;2022-08-20T07:43:28;7.80;;;7.10;;
17175;SDS011;8703;48.996;9.594;2022-08-20T07:45:57;7.05;;;6.35;;
17175;SDS011;8703;48.996;9.594;2022-08-20T07:48:27;8.75;;;7.07;;
17175;SDS011;8703;48.996;9.594;2022-08-20T07:50:56;6.22;;;5.65;;
17175;SDS011;8703;48.996;9.594;2022-08-20T07:53:25;6.15;;;5.53;;
17175;SDS011;8703;48.996;9.594;2022-08-20T07:55:52;6.30;;;5.70;;
17175;SDS011;8703;48.996;9.594;2022-08-20T07:58:21;6.03;;;5.10;;
17175;SDS011;8703;48.996;9.594;2022-08-20T08:00:49;4.57;;;4.00;;
17175;SDS011;8703;48.996;9.594;2022-08-20T08:03:16;6.13;;;4.28;;
17175;SDS011;8703;48.996;9.594;2022-08-20T08:05:45;4.40;;;4.00;;
17175;SDS011;8703;48.996;9.594;2022-08-20T08:08:17;4.80;;;4.40;;
17175;SDS011;8703;48.996;9.594;2022-08-20T08:10:47;4.57;;;4.18;;
17175;SDS011;8703;48.996;9.594;2022-08-20T08:13:16;4.25;;;3.60;;
17175;SDS011;8703;48.996;9.594;2022-08-20T08:15:44;4.57;;;4.18;;
17175;SDS011;8703;48.996;9.594;2022-08-20T08:18:15;4.78;;;3.47;;
17175;SDS011;8703;48.996;9.594;2022-08-20T08:20:46;4.07;;;3.67;;
17175;SDS011;8703;48.996;9.594;2022-08-20T08:23:18;5.50;;;4.03;;
17175;SDS011;8703;48.996;9.594;2022-08-20T08:25:46;5.00;;;4.10;;
17175;SDS011;8703;48.996;9.594;2022-08-20T08:28:16;6.22;;;4.20;;
17175;SDS011;8703;48.996;9.594;2022-08-20T08:30:45;5.65;;;4.35;;
17175;SDS011;8703;48.996;9.594;2022-08-20T08:33:16;4.50;;;4.00;;
17175;SDS011;8703;48.996;9.594;2022-08-20T08:35:55;4.75;;;4.13;;
17175;SDS011;8703;48.996;9.594;2022-08-20T08:38:25;4.63;;;4.00;;
17175;SDS011;8703;48.996;9.594;2022-08-20T08:40:54;4.85;;;4.40;;
17175;SDS011;8703;48.996;9.594;2022-08-20T08:43:23;4.05;;;3.65;;
17175;SDS011;8703;48.996;9.594;2022-08-20T08:45:55;6.20;;;3.80;;
17175;SDS011;8703;48.996;9.594;2022-08-20T08:48:27;4.72;;;4.30;;
17175;SDS011;8703;48.996;9.594;2022-08-20T08:50:57;3.95;;;3.63;;
17175;SDS011;8703;48.996;9.594;2022-08-20T08:53:29;5.00;;;4.10;;
17175;SDS011;8703;48.996;9.594;2022-08-20T08:55:57;4.85;;;3.95;;
17175;SDS011;8703;48.996;9.594;2022-08-20T08:58:25;4.28;;;3.88;;
17175;SDS011;8703;48.996;9.594;2022-08-20T09:00:53;4.97;;;4.45;;
17175;SDS011;8703;48.996;9.594;2022-08-20T09:03:22;5.18;;;4.63;;
17175;SDS011;8703;48.996;9.594;2022-08-20T09:05:55;5.00;;;4.50;;
17175;SDS011;8703;48.996;9.594;2022-08-20T09:08:25;4.63;;;3.97;;
17175;SDS011;8703;48.996;9.594;2022-08-20T09:10:59;4.85;;;4.30;;
17175;SDS011;8703;48.996;9.594;2022-08-20T09:13:28;4.80;;;4.25;;
17175;SDS011;8703;48.996;9.594;2022-08-20T09:15:55;4.70;;;4.20;;
17175;SDS011;8703;48.996;9.594;2022-08-20T09:18:23;4.75;;;3.97;;
17175;SDS011;8703;48.996;9.594;2022-08-20T09:20:51;5.72;;;4.20;;
17175;SDS011;8703;48.996;9.594;2022-08-20T09:23:18;5.35;;;4.85;;
17175;SDS011;8703;48.996;9.594;2022-08-20T09:25:47;5.03;;;4.63;;
17175;SDS011;8703;48.996;9.594;2022-08-20T09:28:14;6.45;;;4.80;;
17175;SDS011;8703;48.996;9.594;2022-08-20T09:30:42;5.53;;;4.55;;
17175;SDS011;8703;48.996;9.594;2022-08-20T09:33:09;5.40;;;4.75;;
17175;SDS011;8703;48.996;9.594;2022-08-20T09:35:37;5.13;;;4.50;;
17175;SDS011;8703;48.996;9.594;2022-08-20T09:38:05;5.43;;;4.20;;
17175;SDS011;8703;48.996;9.594;2022-08-20T09:40:33;5.88;;;4.20;;
17175;SDS011;8703;48.996;9.594;2022-08-20T09:43:01;5.10;;;4.60;;
17175;SDS011;8703;48.996;9.594;2022-08-20T09:45:31;5.25;;;4.10;;
17175;SDS011;8703;48.996;9.594;2022-08-20T09:47:58;5.07;;;4.50;;
17175;SDS011;8703;48.996;9.594;2022-08-20T09:50:27;6.00;;;3.97;;
17175;SDS011;8703;48.996;9.594;2022-08-20T09:52:56;4.55;;;3.85;;
17175;SDS011;8703;48.996;9.594;2022-08-20T09:55:25;4.57;;;3.60;;
17175;SDS011;8703;48.996;9.594;2022-08-20T09:57:56;4.38;;;3.97;;
17175;SDS011;8703;48.996;9.594;2022-08-20T10:00:26;4.68;;;4.28;;
17175;SDS011;8703;48.996;9.594;2022-08-20T10:02:53;4.53;;;4.13;;
17175;SDS011;8703;48.996;9.594;2022-08-20T10:05:20;7.55;;;4.43;;
17175;SDS011;8703;48.996;9.594;2022-08-20T10:07:48;6.35;;;4.10;;
17175;SDS011;8703;48.996;9.594;2022-08-20T10:10:15;5.35;;;4.85;;
17175;SDS011;8703;48.996;9.594;2022-08-20T10:12:43;6.47;;;5.80;;
17175;SDS011;8703;48.996;9.594;2022-08-20T10:15:10;5.63;;;5.22;;
17175;SDS011;8703;48.996;9.594;2022-08-20T10:17:40;5.15;;;4.75;;
17175;SDS011;8703;48.996;9.594;2022-08-20T10:20:09;4.50;;;4.10;;
17175;SDS011;8703;48.996;9.594;2022-08-20T10:22:38;5.95;;;4.80;;
17175;SDS011;8703;48.996;9.594;2022-08-20T10:25:06;5.15;;;4.43;;
17175;SDS011;8703;48.996;9.594;2022-08-20T10:27:34;4.40;;;4.07;;
17175;SDS011;8703;48.996;9.594;2022-08-20T10:30:03;4.03;;;3.72;;
17175;SDS011;8703;48.996;9.594;2022-08-20T10:32:31;3.80;;;3.50;;
17175;SDS011;8703;48.996;9.594;2022-08-20T10:35:00;4.45;;;4.05;;
17175;SDS011;8703;48.996;9.594;2022-08-20T10:37:28;3.55;;;3.22;;
17175;SDS011;8703;48.996;9.594;2022-08-20T10:39:55;3.45;;;3.20;;
17175;SDS011;8703;48.996;9.594;2022-08-20T10:42:23;3.10;;;2.80;;
17175;SDS011;8703;48.996;9.594;2022-08-20T10:44:50;3.88;;;3.10;;
17175;SDS011;8703;48.996;9.594;2022-08-20T10:47:19;2.97;;;2.55;;
17175;SDS011;8703;48.996;9.594;2022-08-20T10:49:48;3.17;;;2.88;;
17175;SDS011;8703;48.996;9.594;2022-08-20T10:52:18;3.00;;;2.80;;
17175;SDS011;8703;48.996;9.594;2022-08-20T10:54:46;2.92;;;2.67;;
17175;SDS011;8703;48.996;9.594;2022-08-20T10:57:14;3.95;;;3.17;;
17175;SDS011;8703;48.996;9.594;2022-08-20T10:59:43;3.65;;;3.35;;
17175;SDS011;8703;48.996;9.594;2022-08-20T11:02:13;3.55;;;3.25;;
17175;SDS011;8703;48.996;9.594;2022-08-20T11:04:41;3.85;;;3.55;;
17175;SDS011;8703;48.996;9.594;2022-08-20T11:07:13;4.05;;;3.67;;
17175;SDS011;8703;48.996;9.594;2022-08-20T11:09:43;3.80;;;3.50;;
17175;SDS011;8703;48.996;9.594;2022-08-20T11:12:11;3.67;;;3.38;;
17175;SDS011;8703;48.996;9.594;2022-08-20T11:14:39;3.63;;;3.30;;
17175;SDS011;8703;48.996;9.594;2022-08-20T11:17:07;3.10;;;2.90;;
17175;SDS011;8703;48.996;9.594;2022-08-20T11:19:37;3.15;;;2.90;;
17175;SDS011;8703;48.996;9.594;2022-08-20T11:22:05;4.07;;;2.83;;
17175;SDS011;8703;48.996;9.594;2022-08-20T11:24:32;5.15;;;3.08;;
17175;SDS011;8703;48.996;9.594;2022-08-20T11:27:01;3.33;;;3.03;;
17175;SDS011;8703;48.996;9.594;2022-08-20T11:29:29;3.00;;;2.75;;
17175;SDS011;8703;48.996;9.594;2022-08-20T11:31:56;2.88;;;2.67;;
17175;SDS011;8703;48.996;9.594;2022-08-20T11:34:24;2.65;;;2.40;;
17175;SDS011;8703;48.996;9.594;2022-08-20T11:36:51;2.75;;;2.55;;
17175;SDS011;8703;48.996;9.594;2022-08-20T11:39:19;2.33;;;2.13;;
17175;SDS011;8703;48.996;9.594;2022-08-20T11:41:46;2.75;;;2.55;;
17175;SDS011;8703;48.996;9.594;2022-08-20T11:44:15;2.67;;;2.47;;
17175;SDS011;8703;48.996;9.594;2022-08-20T11:46:42;2.70;;;2.50;;
17175;SDS011;8703;48.996;9.594;2022-08-20T11:49:09;2.97;;;2.40;;
17175;SDS011;8703;48.996;9.594;2022-08-20T11:51:37;2.67;;;2.20;;
17175;SDS011;8703;48.996;9.594;2022-08-20T11:54:04;2.03;;;1.90;;
17175;SDS011;8703;48.996;9.594;2022-08-20T11:56:31;2.40;;;2.20;;
17175;SDS011;8703;48.996;9.594;2022-08-20T11:58:59;2.22;;;2.03;;
17175;SDS011;8703;48.996;9.594;2022-08-20T12:01:27;2.00;;;1.90;;
17175;SDS011;8703;48.996;9.594;2022-08-20T12:03:55;2.28;;;2.08;;
17175;SDS011;8703;48.996;9.594;2022-08-20T12:06:22;1.77;;;1.65;;
17175;SDS011;8703;48.996;9.594;2022-08-20T12:08:49;1.85;;;1.75;;
17175;SDS011;8703;48.996;9.594;2022-08-20T12:11:17;2.40;;;2.20;;
17175;SDS011;8703;48.996;9.594;2022-08-20T12:13:44;2.97;;;2.17;;
17175;SDS011;8703;48.996;9.594;2022-08-20T12:16:12;2.30;;;2.10;;
17175;SDS011;8703;48.996;9.594;2022-08-20T12:18:40;2.33;;;2.08;;
17175;SDS011;8703;48.996;9.594;2022-08-20T12:21:08;3.08;;;1.10;;
17175;SDS011;8703;48.996;9.594;2022-08-20T12:23:35;1.30;;;0.98;;
17175;SDS011;8703;48.996;9.594;2022-08-20T12:26:03;1.13;;;0.98;;
17175;SDS011;8703;48.996;9.594;2022-08-20T12:28:31;1.63;;;1.30;;
17175;SDS011;8703;48.996;9.594;2022-08-20T12:30:58;1.67;;;1.30;;
17175;SDS011;8703;48.996;9.594;2022-08-20T12:33:25;3.05;;;1.67;;
17175;SDS011;8703;48.996;9.594;2022-08-20T12:35:54;1.50;;;1.30;;
17175;SDS011;8703;48.996;9.594;2022-08-20T12:38:22;3.55;;;1.60;;
17175;SDS011;8703;48.996;9.594;2022-08-20T12:40:50;2.35;;;1.40;;
17175;SDS011;8703;48.996;9.594;2022-08-20T12:43:17;3.65;;;1.50;;
17175;SDS011;8703;48.996;9.594;2022-08-20T12:45:44;6.90;;;2.20;;
17175;SDS011;8703;48.996;9.594;2022-08-20T12:48:12;10.52;;;3.30;;
17175;SDS011;8703;48.996;9.594;2022-08-20T12:50:40;31.40;;;5.68;;
17175;SDS011;8703;48.996;9.594;2022-08-20T12:53:11;10.23;;;3.75;;
17175;SDS011;8703;48.996;9.594;2022-08-20T12:55:38;8.63;;;3.20;;
17175;SDS011;8703;48.996;9.594;2022-08-20T12:58:07;6.93;;;3.65;;
17175;SDS011;8703;48.996;9.594;2022-08-20T13:00:35;4.90;;;3.72;;
17175;SDS011;8703;48.996;9.594;2022-08-20T13:03:05;7.50;;;4.13;;
17175;SDS011;8703;48.996;9.594;2022-08-20T13:05:33;7.18;;;4.40;;
17175;SDS011;8703;48.996;9.594;2022-08-20T13:08:01;5.70;;;4.07;;
17175;SDS011;8703;48.996;9.594;2022-08-20T13:10:34;6.22;;;3.97;;
17175;SDS011;8703;48.996;9.594;2022-08-20T13:13:02;4.20;;;3.70;;
17175;SDS011;8703;48.996;9.594;2022-08-20T13:15:30;4.10;;;3.70;;
17175;SDS011;8703;48.996;9.594;2022-08-20T13:17:59;5.55;;;3.53;;
17175;SDS011;8703;48.996;9.594;2022-08-20T13:20:27;4.78;;;3.80;;
17175;SDS011;8703;48.996;9.594;2022-08-20T13:22:55;5.72;;;3.20;;
17175;SDS011;8703;48.996;9.594;2022-08-20T13:25:23;4.50;;;3.40;;
17175;SDS011;8703;48.996;9.594;2022-08-20T13:27:54;5.35;;;3.67;;
17175;SDS011;8703;48.996;9.594;2022-08-20T13:30:23;5.10;;;3.60;;
17175;SDS011;8703;48.996;9.594;2022-08-20T13:32:51;6.63;;;4.03;;
17175;SDS011;8703;48.996;9.594;2022-08-20T13:35:19;3.97;;;3.53;;
17175;SDS011;8703;48.996;9.594;2022-08-20T13:37:47;6.07;;;4.00;;
17175;SDS011;8703;48.996;9.594;2022-08-20T13:40:15;5.03;;;3.70;;
17175;SDS011;8703;48.996;9.594;2022-08-20T13:42:43;6.38;;;3.38;;
17175;SDS011;8703;48.996;9.594;2022-08-20T13:45:12;4.72;;;3.25;;
17175;SDS011;8703;48.996;9.594;2022-08-20T13:47:39;5.18;;;3.35;;
17175;SDS011;8703;48.996;9.594;2022-08-20T13:50:08;4.78;;;3.38;;
17175;SDS011;8703;48.996;9.594;2022-08-20T13:52:37;4.82;;;3.63;;
17175;SDS011;8703;48.996;9.594;2022-08-20T13:55:05;5.45;;;3.80;;
17175;SDS011;8703;48.996;9.594;2022-08-20T13:57:34;4.80;;;3.80;;
17175;SDS011;8703;48.996;9.594;2022-08-20T14:00:03;4.43;;;3.67;;
17175;SDS011;8703;48.996;9.594;2022-08-20T14:02:33;5.00;;;3.90;;
17175;SDS011;8703;48.996;9.594;2022-08-20T14:05:01;3.40;;;3.10;;
17175;SDS011;8703;48.996;9.594;2022-08-20T14:07:28;3.90;;;3.50;;
17175;SDS011;8703;48.996;9.594;2022-08-20T14:09:57;5.57;;;3.03;;
17175;SDS011;8703;48.996;9.594;2022-08-20T14:12:25;3.95;;;3.53;;
17175;SDS011;8703;48.996;9.594;2022-08-20T14:14:53;3.38;;;3.05;;
17175;SDS011;8703;48.996;9.594;2022-08-20T14:17:21;4.53;;;3.10;;
17175;SDS011;8703;48.996;9.594;2022-08-20T14:19:52;3.40;;;3.10;;
17175;SDS011;8703;48.996;9.594;2022-08-20T14:22:20;4.30;;;3.35;;
17175;SDS011;8703;48.996;9.594;2022-08-20T14:24:48;4.38;;;3.25;;
17175;SDS011;8703;48.996;9.594;2022-08-20T14:27:17;3.17;;;2.88;;
17175;SDS011;8703;48.996;9.594;2022-08-20T14:29:46;3.67;;;2.65;;
17175;SDS011;8703;48.996;9.594;2022-08-20T14:32:14;3.30;;;2.70;;
17175;SDS011;8703;48.996;9.594;2022-08-20T14:34:42;3.63;;;2.60;;
17175;SDS011;8703;48.996;9.594;2022-08-20T14:37:15;3.22;;;2.80;;
17175;SDS011;8703;48.996;9.594;2022-08-20T14:39:44;2.88;;;2.60;;
17175;SDS011;8703;48.996;9.594;2022-08-20T14:42:13;4.18;;;2.72;;
17175;SDS011;8703;48.996;9.594;2022-08-20T14:44:41;3.25;;;2.67;;
17175;SDS011;8703;48.996;9.594;2022-08-20T14:47:09;4.70;;;2.47;;
17175;SDS011;8703;48.996;9.594;2022-08-20T14:49:38;4.38;;;2.70;;
17175;SDS011;8703;48.996;9.594;2022-08-20T14:52:05;4.63;;;2.80;;
17175;SDS011;8703;48.996;9.594;2022-08-20T14:54:34;3.95;;;2.38;;
17175;SDS011;8703;48.996;9.594;2022-08-20T14:57:02;4.65;;;2.45;;
17175;SDS011;8703;48.996;9.594;2022-08-20T14:59:30;2.92;;;2.45;;
17175;SDS011;8703;48.996;9.594;2022-08-20T15:01:58;2.70;;;2.30;;
17175;SDS011;8703;48.996;9.594;2022-08-20T15:04:25;3.72;;;2.28;;